createdAt,value
2022-11-05T00:01:18.066Z,4.76
2022-11-05T00:06:38.354Z,4.71
2022-11-05T00:12:12.239Z,4.42
2022-11-05T00:17:15.632Z,4.43
2022-11-05T00:22:35.708Z,4.52
2022-11-05T00:27:39.994Z,5.04
2022-11-05T00:32:41.620Z,5.37
2022-11-05T00:37:48.757Z,5.34
2022-11-05T00:43:12.040Z,5.25
2022-11-05T00:48:49.260Z,5.14
2022-11-05T00:53:51.048Z,5.07
2022-11-05T00:58:52.569Z,4.90
2022-11-05T01:03:54.086Z,4.89
2022-11-05T01:08:56.012Z,4.98
2022-11-05T01:13:57.528Z,5.14
2022-11-05T01:18:59.187Z,5.33
2022-11-05T01:24:01.203Z,5.47
2022-11-05T01:29:02.795Z,5.68
2022-11-05T01:34:04.477Z,5.75
2022-11-05T01:39:05.993Z,5.82
2022-11-05T01:44:47.868Z,5.92
2022-11-05T01:49:49.778Z,5.83
2022-11-05T01:54:51.435Z,5.66
2022-11-05T01:59:59.257Z,5.35
2022-11-05T02:05:06.359Z,5.40
2022-11-05T02:10:10.807Z,5.27
2022-11-05T02:15:14.772Z,4.98
2022-11-05T02:20:28.584Z,4.87
2022-11-05T02:26:08.676Z,4.75
2022-11-05T02:31:24.590Z,4.75
2022-11-05T02:36:25.992Z,4.85
2022-11-05T02:41:47.892Z,4.79
2022-11-05T02:47:08.122Z,4.53
2022-11-05T02:52:23.322Z,4.29
2022-11-05T02:57:29.598Z,4.30
2022-11-05T03:02:31.669Z,4.53
2022-11-05T03:07:42.318Z,4.62
2022-11-05T03:13:16.824Z,4.51
2022-11-05T03:18:44.408Z,4.03
2022-11-05T03:23:56.474Z,4.24
2022-11-05T03:29:13.176Z,4.23
2022-11-05T03:34:19.531Z,4.42
2022-11-05T03:39:29.253Z,4.47
2022-11-05T03:44:35.409Z,4.42
2022-11-05T03:49:48.650Z,4.37
2022-11-05T03:54:50.550Z,4.51
2022-11-05T03:59:52.391Z,4.53
2022-11-05T04:04:55.030Z,4.43
2022-11-05T04:10:15.740Z,4.49
2022-11-05T04:15:17.234Z,4.35
2022-11-05T04:20:37.338Z,4.12
2022-11-05T04:25:38.894Z,3.92
2022-11-05T04:30:40.978Z,3.87
2022-11-05T04:35:49.653Z,3.75
2022-11-05T04:40:51.191Z,3.65
2022-11-05T04:45:55.785Z,3.61
2022-11-05T04:50:57.330Z,3.67
2022-11-05T04:56:15.067Z,3.72
2022-11-05T05:01:19.195Z,3.69
2022-11-05T05:06:21.554Z,3.55
2022-11-05T05:11:23.185Z,3.38
2022-11-05T05:16:27.370Z,3.50
2022-11-05T05:21:41.558Z,3.47
2022-11-05T05:26:45.046Z,3.58
2022-11-05T05:31:47.597Z,3.45
2022-11-05T05:36:49.795Z,3.45
2022-11-05T05:41:51.436Z,3.39
2022-11-05T05:46:54.162Z,3.46
2022-11-05T05:51:56.695Z,3.38
2022-11-05T05:56:58.180Z,3.32
2022-11-05T06:02:00.671Z,3.25
2022-11-05T06:07:02.444Z,3.10
2022-11-05T06:12:04.268Z,3.27
2022-11-05T06:17:07.305Z,3.31
2022-11-05T06:22:08.835Z,3.16
2022-11-05T06:27:10.395Z,3.15
2022-11-05T06:32:12.018Z,3.01
2022-11-05T06:37:13.650Z,2.96
2022-11-05T06:42:19.244Z,3.09
2022-11-05T06:47:21.525Z,2.97
2022-11-05T06:52:23.041Z,2.97
2022-11-05T06:57:24.546Z,3.11
2022-11-05T07:02:26.168Z,3.12
2022-11-05T07:07:30.457Z,3.25
2022-11-05T07:12:32.025Z,3.30
2022-11-05T07:17:33.625Z,3.29
2022-11-05T07:22:35.636Z,3.46
2022-11-05T07:27:40.689Z,3.68
2022-11-05T07:32:42.573Z,3.96
2022-11-05T07:37:45.395Z,4.07
2022-11-05T07:42:49.651Z,4.27
2022-11-05T07:47:56.224Z,4.49
2022-11-05T07:53:10.361Z,5.03
2022-11-05T07:58:12.342Z,5.61
2022-11-05T08:03:17.191Z,6.18
2022-11-05T08:08:19.831Z,6.52
2022-11-05T08:13:21.381Z,6.38
2022-11-05T08:18:23.293Z,6.72
2022-11-05T08:23:25.812Z,7.08
2022-11-05T08:28:27.399Z,7.16
2022-11-05T08:33:31.533Z,7.55
2022-11-05T08:38:33.282Z,7.51
2022-11-05T08:43:34.798Z,7.50
2022-11-05T08:48:36.330Z,7.28
2022-11-05T08:53:37.809Z,7.08
2022-11-05T08:58:39.361Z,7.15
2022-11-05T09:03:40.842Z,7.10
2022-11-05T09:08:42.591Z,7.16
2022-11-05T09:13:44.500Z,7.33
2022-11-05T09:18:46.083Z,7.29
2022-11-05T09:23:48.050Z,7.41
2022-11-05T09:28:49.533Z,7.60
2022-11-05T09:33:51.104Z,7.80
2022-11-05T09:38:52.747Z,7.87
2022-11-05T09:43:59.272Z,8.03
2022-11-05T09:49:05.979Z,7.89
2022-11-05T09:54:07.722Z,8.40
2022-11-05T09:59:22.180Z,9.07
2022-11-05T10:04:26.142Z,10.14
2022-11-05T10:09:35.163Z,9.74
2022-11-05T10:14:42.920Z,10.54
2022-11-05T10:19:49.350Z,10.82
2022-11-05T10:24:52.374Z,10.72
2022-11-05T10:29:54.189Z,10.71
2022-11-05T10:34:58.978Z,11.41
2022-11-05T10:40:00.824Z,10.61
2022-11-05T10:45:23.952Z,10.94
2022-11-05T10:50:28.556Z,10.86
2022-11-05T10:55:34.813Z,11.46
2022-11-05T11:00:37.104Z,11.81
2022-11-05T11:05:40.327Z,12.25
2022-11-05T11:10:54.764Z,11.43
2022-11-05T11:16:20.606Z,11.36
2022-11-05T11:21:23.728Z,10.95
2022-11-05T11:26:31.875Z,10.84
2022-11-05T11:31:38.692Z,10.65
2022-11-05T11:36:45.653Z,10.63
2022-11-05T11:41:52.467Z,10.40
2022-11-05T11:46:58.433Z,10.41
2022-11-05T11:52:04.196Z,10.34
2022-11-05T11:57:30.957Z,10.33
2022-11-05T12:02:44.527Z,10.36
2022-11-05T12:07:58.050Z,10.39
2022-11-05T12:13:18.389Z,10.39
2022-11-05T12:18:47.684Z,10.45
2022-11-05T12:24:09.125Z,10.42
2022-11-05T12:29:35.365Z,10.44
2022-11-05T12:35:05.530Z,10.32
2022-11-05T12:40:14.966Z,10.20
2022-11-05T12:45:29.746Z,10.14
2022-11-05T12:51:13.136Z,10.16
2022-11-05T12:56:30.455Z,10.15
2022-11-05T13:01:39.031Z,10.23
2022-11-05T13:06:46.181Z,10.13
2022-11-05T13:12:06.442Z,10.19
2022-11-05T13:17:14.827Z,10.04
2022-11-05T13:22:38.205Z,10.09
2022-11-05T13:28:21.100Z,10.07
2022-11-05T13:33:27.379Z,9.98
2022-11-05T13:38:47.525Z,9.94
2022-11-05T13:50:56.206Z,9.80
2022-11-05T13:56:19.753Z,9.79
2022-11-05T14:01:45.570Z,9.73
2022-11-05T14:06:50.153Z,9.66
2022-11-05T14:12:23.423Z,9.69
2022-11-05T14:17:56.692Z,9.64
2022-11-05T14:23:25.959Z,9.60
2022-11-05T14:28:36.560Z,9.56
2022-11-05T14:33:39.558Z,9.49
2022-11-05T14:38:50.411Z,9.49
2022-11-05T14:44:01.232Z,9.44
2022-11-05T14:49:09.190Z,9.40
2022-11-05T14:54:28.225Z,9.43
2022-11-05T14:59:31.734Z,9.48
2022-11-05T15:04:40.466Z,9.39
2022-11-05T15:09:44.891Z,9.33
2022-11-05T15:14:55.723Z,9.29
2022-11-05T15:20:09.157Z,9.17
2022-11-05T15:25:21.457Z,9.09
2022-11-05T15:30:23.988Z,8.99
2022-11-05T15:35:27.904Z,8.95
2022-11-05T15:40:31.788Z,8.92
2022-11-05T15:45:36.503Z,8.79
2022-11-05T15:50:38.274Z,8.81
2022-11-05T15:55:49.648Z,8.93
2022-11-05T16:00:52.097Z,8.82
2022-11-05T16:05:54.121Z,8.80
2022-11-05T16:10:58.169Z,8.85
2022-11-05T16:16:02.865Z,8.77
2022-11-05T16:21:12.064Z,8.78
2022-11-05T16:31:55.678Z,8.65
2022-11-05T16:36:58.962Z,8.72
2022-11-05T16:42:00.525Z,8.67
2022-11-05T16:47:02.043Z,8.68
2022-11-05T16:52:08.425Z,8.67
2022-11-05T16:57:26.720Z,8.71
2022-11-05T17:02:29.125Z,8.66
2022-11-05T17:07:34.724Z,8.55
2022-11-05T17:12:38.725Z,8.60
2022-11-05T17:17:40.290Z,8.52
2022-11-05T17:22:41.767Z,8.63
2022-11-05T17:27:43.378Z,8.56
2022-11-05T17:32:45.142Z,8.63
2022-11-05T17:37:46.917Z,8.69
2022-11-05T17:42:49.292Z,8.68
2022-11-05T17:47:50.785Z,8.77
2022-11-05T17:52:52.322Z,8.83
2022-11-05T17:57:53.794Z,8.86
2022-11-05T18:02:55.443Z,8.94
2022-11-05T18:07:57.628Z,8.88
2022-11-05T18:14:07.487Z,9.01
2022-11-05T18:19:09.052Z,9.09
2022-11-05T18:24:11.106Z,9.11
2022-11-05T18:29:12.579Z,9.16
2022-11-05T18:34:14.054Z,9.14
2022-11-05T18:39:15.556Z,9.13
2022-11-05T18:44:17.211Z,9.14
2022-11-05T18:49:18.872Z,9.24
2022-11-05T18:54:21.092Z,9.24
2022-11-05T18:59:36.652Z,9.33
2022-11-05T19:04:39.246Z,9.27
2022-11-05T19:09:40.869Z,9.27
2022-11-05T19:14:44.624Z,9.24
2022-11-05T19:19:46.157Z,9.12
2022-11-05T19:24:47.717Z,9.16
2022-11-05T19:29:49.329Z,9.19
2022-11-05T19:34:50.824Z,9.33
2022-11-05T19:39:52.288Z,9.29
2022-11-05T19:44:53.849Z,9.28
2022-11-05T19:49:55.706Z,9.19
2022-11-05T19:54:57.208Z,9.24
2022-11-05T19:59:58.748Z,9.25
2022-11-05T20:05:00.268Z,9.28
2022-11-05T20:10:01.828Z,9.28
2022-11-05T20:15:04.085Z,9.20
2022-11-05T20:20:07.461Z,9.24
2022-11-05T20:25:10.337Z,9.20
2022-11-05T20:30:12.127Z,9.19
2022-11-05T20:35:13.861Z,9.13
2022-11-05T20:40:15.700Z,9.14
2022-11-05T20:45:17.302Z,9.14
2022-11-05T20:50:18.862Z,9.12
2022-11-05T21:02:20.690Z,9.07
2022-11-05T21:07:22.250Z,9.07
2022-11-05T21:12:23.928Z,9.07
2022-11-05T21:17:25.438Z,9.04
2022-11-05T21:22:27.149Z,8.95
2022-11-05T21:27:28.612Z,8.95
2022-11-05T21:32:30.168Z,8.92
2022-11-05T21:37:32.284Z,8.98
2022-11-05T21:42:33.819Z,8.94
2022-11-05T21:47:35.402Z,8.99
2022-11-05T21:52:55.395Z,8.98
2022-11-05T21:58:17.770Z,8.86
2022-11-05T22:03:19.278Z,8.73
2022-11-05T22:08:20.807Z,8.68
2022-11-05T22:13:22.282Z,8.78
2022-11-05T22:18:23.822Z,8.70
2022-11-05T22:23:25.343Z,8.62
2022-11-05T22:28:26.929Z,8.62
2022-11-05T22:33:28.475Z,8.62
2022-11-05T22:38:31.020Z,8.66
2022-11-05T22:43:33.019Z,8.57
2022-11-05T22:48:35.917Z,8.59
2022-11-05T22:53:38.314Z,8.45
2022-11-05T22:58:39.908Z,8.41
2022-11-05T23:03:43.622Z,8.44
2022-11-05T23:09:03.877Z,8.32
2022-11-05T23:14:07.522Z,8.29
2022-11-05T23:19:28.549Z,8.21
2022-11-05T23:24:30.085Z,8.15
2022-11-05T23:29:31.563Z,8.06
2022-11-05T23:34:33.186Z,8.10
2022-11-05T23:39:39.678Z,8.09
2022-11-05T23:45:02.666Z,8.11
2022-11-05T23:50:04.486Z,8.04
2022-11-05T23:55:06.228Z,8.02
